sensor_id;sensor_type;location;lat;lon;timestamp;temperature;humidity
20777;DHT22;10548;47.504;8.248;2024-01-10T00:02:20;-2.80;99.90
20777;DHT22;10548;47.504;8.248;2024-01-10T00:04:47;-2.80;99.90
20777;DHT22;10548;47.504;8.248;2024-01-10T00:07:14;-2.90;99.90
20777;DHT22;10548;47.504;8.248;2024-01-10T00:09:41;-2.90;99.90
20777;DHT22;10548;47.504;8.248;2024-01-10T00:12:09;-2.90;99.90
20777;DHT22;10548;47.504;8.248;2024-01-10T00:14:36;-2.90;99.90
20777;DHT22;10548;47.504;8.248;2024-01-10T00:17:03;-2.90;99.90
20777;DHT22;10548;47.504;8.248;2024-01-10T00:19:30;-2.80;99.90
20777;DHT22;10548;47.504;8.248;2024-01-10T00:21:57;-2.80;99.90
20777;DHT22;10548;47.504;8.248;2024-01-10T00:24:25;-3.00;99.90
20777;DHT22;10548;47.504;8.248;2024-01-10T00:26:52;-2.80;99.90
20777;DHT22;10548;47.504;8.248;2024-01-10T00:29:19;-2.90;99.90
20777;DHT22;10548;47.504;8.248;2024-01-10T00:31:46;-2.80;99.90
20777;DHT22;10548;47.504;8.248;2024-01-10T00:34:13;-3.10;99.90
20777;DHT22;10548;47.504;8.248;2024-01-10T00:36:40;-3.00;99.90
20777;DHT22;10548;47.504;8.248;2024-01-10T00:39:07;-2.90;99.90
20777;DHT22;10548;47.504;8.248;2024-01-10T00:41:35;-2.90;99.90
20777;DHT22;10548;47.504;8.248;2024-01-10T00:44:02;-2.90;99.90
20777;DHT22;10548;47.504;8.248;2024-01-10T00:46:29;-2.80;99.90
20777;DHT22;10548;47.504;8.248;2024-01-10T00:48:56;-2.80;99.90
20777;DHT22;10548;47.504;8.248;2024-01-10T00:51:23;-2.80;99.90
20777;DHT22;10548;47.504;8.248;2024-01-10T00:53:50;-2.80;99.90
20777;DHT22;10548;47.504;8.248;2024-01-10T00:56:17;-2.80;99.90
20777;DHT22;10548;47.504;8.248;2024-01-10T00:58:44;-2.90;99.90
20777;DHT22;10548;47.504;8.248;2024-01-10T01:01:12;-2.90;99.90
20777;DHT22;10548;47.504;8.248;2024-01-10T01:03:39;-2.90;99.90
20777;DHT22;10548;47.504;8.248;2024-01-10T01:06:06;-2.80;99.90
20777;DHT22;10548;47.504;8.248;2024-01-10T01:08:33;-2.80;99.90
20777;DHT22;10548;47.504;8.248;2024-01-10T01:11:00;-2.80;99.90
20777;DHT22;10548;47.504;8.248;2024-01-10T01:13:28;-2.80;99.90
20777;DHT22;10548;47.504;8.248;2024-01-10T01:15:55;-2.80;99.90
20777;DHT22;10548;47.504;8.248;2024-01-10T01:18:22;-2.80;99.90
20777;DHT22;10548;47.504;8.248;2024-01-10T01:20:49;-2.80;99.90
20777;DHT22;10548;47.504;8.248;2024-01-10T01:23:17;-2.80;99.90
20777;DHT22;10548;47.504;8.248;2024-01-10T01:25:59;-2.90;99.90
20777;DHT22;10548;47.504;8.248;2024-01-10T01:28:26;-3.00;99.90
20777;DHT22;10548;47.504;8.248;2024-01-10T01:30:53;-2.90;99.90
20777;DHT22;10548;47.504;8.248;2024-01-10T01:33:20;-2.80;99.90
20777;DHT22;10548;47.504;8.248;2024-01-10T01:35:47;-2.80;99.90
20777;DHT22;10548;47.504;8.248;2024-01-10T01:38:14;-2.80;99.90
20777;DHT22;10548;47.504;8.248;2024-01-10T01:40:41;-2.80;99.90
20777;DHT22;10548;47.504;8.248;2024-01-10T01:43:23;-2.80;99.90
20777;DHT22;10548;47.504;8.248;2024-01-10T01:45:55;-2.90;99.90
20777;DHT22;10548;47.504;8.248;2024-01-10T01:48:23;-2.90;99.90
20777;DHT22;10548;47.504;8.248;2024-01-10T01:50:57;-2.70;99.90
20777;DHT22;10548;47.504;8.248;2024-01-10T01:53:25;-2.70;99.90
20777;DHT22;10548;47.504;8.248;2024-01-10T01:55:53;-2.80;99.90
20777;DHT22;10548;47.504;8.248;2024-01-10T01:58:22;-2.80;99.90
20777;DHT22;10548;47.504;8.248;2024-01-10T02:00:49;-2.70;99.90
20777;DHT22;10548;47.504;8.248;2024-01-10T02:03:17;-2.80;99.90
20777;DHT22;10548;47.504;8.248;2024-01-10T02:05:47;-2.80;99.90
20777;DHT22;10548;47.504;8.248;2024-01-10T02:08:15;-2.80;99.90
20777;DHT22;10548;47.504;8.248;2024-01-10T02:10:42;-2.80;99.90
20777;DHT22;10548;47.504;8.248;2024-01-10T02:13:09;-2.80;99.90
20777;DHT22;10548;47.504;8.248;2024-01-10T02:15:38;-2.80;99.90
20777;DHT22;10548;47.504;8.248;2024-01-10T02:18:05;-2.80;99.90
20777;DHT22;10548;47.504;8.248;2024-01-10T02:20:33;-2.80;99.90
20777;DHT22;10548;47.504;8.248;2024-01-10T02:23:01;-2.80;99.90
20777;DHT22;10548;47.504;8.248;2024-01-10T02:25:28;-2.90;99.90
20777;DHT22;10548;47.504;8.248;2024-01-10T02:27:56;-2.90;99.90
20777;DHT22;10548;47.504;8.248;2024-01-10T02:30:23;-3.00;99.90
20777;DHT22;10548;47.504;8.248;2024-01-10T02:32:50;-3.00;99.90
20777;DHT22;10548;47.504;8.248;2024-01-10T02:35:17;-3.10;99.90
20777;DHT22;10548;47.504;8.248;2024-01-10T02:37:44;-3.10;99.90
20777;DHT22;10548;47.504;8.248;2024-01-10T02:40:12;-3.10;99.90
20777;DHT22;10548;47.504;8.248;2024-01-10T02:42:39;-3.20;99.90
20777;DHT22;10548;47.504;8.248;2024-01-10T02:45:06;-3.20;99.90
20777;DHT22;10548;47.504;8.248;2024-01-10T02:47:34;-3.30;99.90
20777;DHT22;10548;47.504;8.248;2024-01-10T02:50:01;-3.30;99.90
20777;DHT22;10548;47.504;8.248;2024-01-10T02:52:28;-3.30;99.90
20777;DHT22;10548;47.504;8.248;2024-01-10T02:54:56;-3.20;99.90
20777;DHT22;10548;47.504;8.248;2024-01-10T02:57:23;-3.10;99.90
20777;DHT22;10548;47.504;8.248;2024-01-10T02:59:50;-3.10;99.90
20777;DHT22;10548;47.504;8.248;2024-01-10T03:02:17;-3.10;99.90
20777;DHT22;10548;47.504;8.248;2024-01-10T03:04:44;-3.00;99.90
20777;DHT22;10548;47.504;8.248;2024-01-10T03:07:11;-3.00;99.90
20777;DHT22;10548;47.504;8.248;2024-01-10T03:09:38;-2.90;99.90
20777;DHT22;10548;47.504;8.248;2024-01-10T03:12:06;-2.90;99.90
20777;DHT22;10548;47.504;8.248;2024-01-10T03:14:33;-2.90;99.90
20777;DHT22;10548;47.504;8.248;2024-01-10T03:17:03;-2.80;99.90
20777;DHT22;10548;47.504;8.248;2024-01-10T03:19:30;-2.80;99.90
20777;DHT22;10548;47.504;8.248;2024-01-10T03:21:57;-2.80;99.90
20777;DHT22;10548;47.504;8.248;2024-01-10T03:24:24;-2.90;99.90
20777;DHT22;10548;47.504;8.248;2024-01-10T03:26:54;-2.90;99.90
20777;DHT22;10548;47.504;8.248;2024-01-10T03:29:21;-2.90;99.90
20777;DHT22;10548;47.504;8.248;2024-01-10T03:31:48;-2.90;99.90
20777;DHT22;10548;47.504;8.248;2024-01-10T03:34:15;-3.00;99.90
20777;DHT22;10548;47.504;8.248;2024-01-10T03:36:45;-2.90;99.90
20777;DHT22;10548;47.504;8.248;2024-01-10T03:39:12;-3.00;99.90
20777;DHT22;10548;47.504;8.248;2024-01-10T03:41:39;-3.10;99.90
20777;DHT22;10548;47.504;8.248;2024-01-10T03:44:06;-3.20;99.90
20777;DHT22;10548;47.504;8.248;2024-01-10T03:46:33;-3.20;99.90
20777;DHT22;10548;47.504;8.248;2024-01-10T03:49:00;-3.30;99.90
20777;DHT22;10548;47.504;8.248;2024-01-10T03:51:27;-3.30;99.90
20777;DHT22;10548;47.504;8.248;2024-01-10T03:53:55;-3.40;99.90
20777;DHT22;10548;47.504;8.248;2024-01-10T03:56:23;-3.40;99.90
20777;DHT22;10548;47.504;8.248;2024-01-10T03:58:50;-3.50;99.90
20777;DHT22;10548;47.504;8.248;2024-01-10T04:01:21;-3.70;99.90
20777;DHT22;10548;47.504;8.248;2024-01-10T04:03:49;-3.80;99.90
20777;DHT22;10548;47.504;8.248;2024-01-10T04:06:16;-3.80;99.90
20777;DHT22;10548;47.504;8.248;2024-01-10T04:08:43;-3.80;99.90
20777;DHT22;10548;47.504;8.248;2024-01-10T04:11:11;-3.70;99.90
20777;DHT22;10548;47.504;8.248;2024-01-10T04:13:38;-3.70;99.90
20777;DHT22;10548;47.504;8.248;2024-01-10T04:16:06;-3.80;99.90
20777;DHT22;10548;47.504;8.248;2024-01-10T04:18:34;-3.90;99.90
20777;DHT22;10548;47.504;8.248;2024-01-10T04:21:01;-4.00;99.90
20777;DHT22;10548;47.504;8.248;2024-01-10T04:23:28;-4.00;99.90
20777;DHT22;10548;47.504;8.248;2024-01-10T04:25:57;-4.10;99.90
20777;DHT22;10548;47.504;8.248;2024-01-10T04:28:24;-4.10;99.90
20777;DHT22;10548;47.504;8.248;2024-01-10T04:30:51;-4.10;99.90
20777;DHT22;10548;47.504;8.248;2024-01-10T04:33:19;-4.10;99.90
20777;DHT22;10548;47.504;8.248;2024-01-10T04:35:46;-4.00;99.90
20777;DHT22;10548;47.504;8.248;2024-01-10T04:38:13;-3.90;99.90
20777;DHT22;10548;47.504;8.248;2024-01-10T04:40:41;-3.80;99.90
20777;DHT22;10548;47.504;8.248;2024-01-10T04:43:08;-3.70;99.90
20777;DHT22;10548;47.504;8.248;2024-01-10T04:45:35;-3.60;99.90
20777;DHT22;10548;47.504;8.248;2024-01-10T04:48:02;-3.60;99.90
20777;DHT22;10548;47.504;8.248;2024-01-10T04:50:30;-3.50;99.90
20777;DHT22;10548;47.504;8.248;2024-01-10T04:52:57;-3.50;99.90
20777;DHT22;10548;47.504;8.248;2024-01-10T04:55:24;-3.40;99.90
20777;DHT22;10548;47.504;8.248;2024-01-10T04:57:51;-3.40;99.90
20777;DHT22;10548;47.504;8.248;2024-01-10T05:00:18;-3.30;99.90
20777;DHT22;10548;47.504;8.248;2024-01-10T05:02:46;-3.30;99.90
20777;DHT22;10548;47.504;8.248;2024-01-10T05:05:13;-3.30;99.90
20777;DHT22;10548;47.504;8.248;2024-01-10T05:07:40;-3.20;99.90
20777;DHT22;10548;47.504;8.248;2024-01-10T05:10:07;-3.20;99.90
20777;DHT22;10548;47.504;8.248;2024-01-10T05:12:34;-3.30;99.90
20777;DHT22;10548;47.504;8.248;2024-01-10T05:15:01;-3.30;99.90
20777;DHT22;10548;47.504;8.248;2024-01-10T05:17:29;-3.30;99.90
20777;DHT22;10548;47.504;8.248;2024-01-10T05:19:56;-3.20;99.90
20777;DHT22;10548;47.504;8.248;2024-01-10T05:22:23;-3.20;99.90
20777;DHT22;10548;47.504;8.248;2024-01-10T05:24:50;-3.10;99.90
20777;DHT22;10548;47.504;8.248;2024-01-10T05:27:17;-3.10;99.90
20777;DHT22;10548;47.504;8.248;2024-01-10T05:29:44;-3.10;99.90
20777;DHT22;10548;47.504;8.248;2024-01-10T05:32:13;-3.00;99.90
20777;DHT22;10548;47.504;8.248;2024-01-10T05:34:40;-3.00;99.90
20777;DHT22;10548;47.504;8.248;2024-01-10T05:37:07;-3.00;99.90
20777;DHT22;10548;47.504;8.248;2024-01-10T05:39:34;-3.00;99.90
20777;DHT22;10548;47.504;8.248;2024-01-10T05:42:01;-3.10;99.90
20777;DHT22;10548;47.504;8.248;2024-01-10T05:44:29;-3.10;99.90
20777;DHT22;10548;47.504;8.248;2024-01-10T05:46:56;-3.10;99.90
20777;DHT22;10548;47.504;8.248;2024-01-10T05:49:26;-3.00;99.90
20777;DHT22;10548;47.504;8.248;2024-01-10T05:51:53;-2.90;99.90
20777;DHT22;10548;47.504;8.248;2024-01-10T05:54:20;-2.80;99.90
20777;DHT22;10548;47.504;8.248;2024-01-10T05:56:48;-2.80;99.90
20777;DHT22;10548;47.504;8.248;2024-01-10T05:59:16;-2.80;99.90
20777;DHT22;10548;47.504;8.248;2024-01-10T06:01:43;-2.80;99.90
20777;DHT22;10548;47.504;8.248;2024-01-10T06:04:11;-2.80;99.90
20777;DHT22;10548;47.504;8.248;2024-01-10T06:06:38;-2.80;99.90
20777;DHT22;10548;47.504;8.248;2024-01-10T06:09:05;-2.80;99.90
20777;DHT22;10548;47.504;8.248;2024-01-10T06:11:32;-2.80;99.90
20777;DHT22;10548;47.504;8.248;2024-01-10T06:13:59;-2.80;99.90
20777;DHT22;10548;47.504;8.248;2024-01-10T06:16:26;-2.80;99.90
20777;DHT22;10548;47.504;8.248;2024-01-10T06:18:53;-2.80;99.90
20777;DHT22;10548;47.504;8.248;2024-01-10T06:21:20;-2.70;99.90
20777;DHT22;10548;47.504;8.248;2024-01-10T06:23:47;-2.80;99.90
20777;DHT22;10548;47.504;8.248;2024-01-10T06:26:15;-2.70;99.90
20777;DHT22;10548;47.504;8.248;2024-01-10T06:28:42;-2.70;99.90
20777;DHT22;10548;47.504;8.248;2024-01-10T06:31:09;-2.70;99.90
20777;DHT22;10548;47.504;8.248;2024-01-10T06:33:38;-2.70;99.90
20777;DHT22;10548;47.504;8.248;2024-01-10T06:36:06;-2.60;99.90
20777;DHT22;10548;47.504;8.248;2024-01-10T06:38:33;-2.60;99.90
20777;DHT22;10548;47.504;8.248;2024-01-10T06:41:00;-2.60;99.90
20777;DHT22;10548;47.504;8.248;2024-01-10T06:43:27;-2.60;99.90
20777;DHT22;10548;47.504;8.248;2024-01-10T06:45:55;-2.60;99.90
20777;DHT22;10548;47.504;8.248;2024-01-10T06:48:22;-2.60;99.90
20777;DHT22;10548;47.504;8.248;2024-01-10T06:50:49;-2.60;99.90
20777;DHT22;10548;47.504;8.248;2024-01-10T06:53:16;-2.60;99.90
20777;DHT22;10548;47.504;8.248;2024-01-10T06:55:44;-2.50;99.90
20777;DHT22;10548;47.504;8.248;2024-01-10T06:58:11;-2.60;99.90
20777;DHT22;10548;47.504;8.248;2024-01-10T07:00:38;-2.50;99.90
20777;DHT22;10548;47.504;8.248;2024-01-10T07:03:05;-2.70;99.90
20777;DHT22;10548;47.504;8.248;2024-01-10T07:05:32;-2.60;99.90
20777;DHT22;10548;47.504;8.248;2024-01-10T07:08:00;-2.50;99.90
20777;DHT22;10548;47.504;8.248;2024-01-10T07:10:30;-2.60;99.90
20777;DHT22;10548;47.504;8.248;2024-01-10T07:12:57;-2.60;99.90
20777;DHT22;10548;47.504;8.248;2024-01-10T07:15:24;-2.50;99.90
20777;DHT22;10548;47.504;8.248;2024-01-10T07:17:51;-2.50;99.90
20777;DHT22;10548;47.504;8.248;2024-01-10T07:20:19;-2.50;99.90
20777;DHT22;10548;47.504;8.248;2024-01-10T07:22:46;-2.50;99.90
20777;DHT22;10548;47.504;8.248;2024-01-10T07:25:14;-2.50;99.90
20777;DHT22;10548;47.504;8.248;2024-01-10T07:27:41;-2.50;99.90
20777;DHT22;10548;47.504;8.248;2024-01-10T07:30:09;-2.40;99.90
20777;DHT22;10548;47.504;8.248;2024-01-10T07:32:46;-2.30;99.90
20777;DHT22;10548;47.504;8.248;2024-01-10T07:35:13;-2.20;99.90
20777;DHT22;10548;47.504;8.248;2024-01-10T07:37:41;-2.10;99.90
20777;DHT22;10548;47.504;8.248;2024-01-10T07:40:10;-2.00;99.90
20777;DHT22;10548;47.504;8.248;2024-01-10T07:42:42;-2.00;99.90
20777;DHT22;10548;47.504;8.248;2024-01-10T07:45:09;-1.90;99.90
20777;DHT22;10548;47.504;8.248;2024-01-10T07:47:37;-1.80;99.90
20777;DHT22;10548;47.504;8.248;2024-01-10T07:50:06;-1.80;99.90
20777;DHT22;10548;47.504;8.248;2024-01-10T07:52:34;-1.70;99.90
20777;DHT22;10548;47.504;8.248;2024-01-10T07:55:01;-1.60;99.90
20777;DHT22;10548;47.504;8.248;2024-01-10T07:57:28;-1.50;99.90
20777;DHT22;10548;47.504;8.248;2024-01-10T07:59:55;-1.50;99.90
20777;DHT22;10548;47.504;8.248;2024-01-10T08:02:24;-1.50;99.90
20777;DHT22;10548;47.504;8.248;2024-01-10T08:04:52;-1.60;99.90
20777;DHT22;10548;47.504;8.248;2024-01-10T08:07:19;-1.60;99.90
20777;DHT22;10548;47.504;8.248;2024-01-10T08:09:47;-1.50;99.90
20777;DHT22;10548;47.504;8.248;2024-01-10T08:12:14;-1.50;99.90
20777;DHT22;10548;47.504;8.248;2024-01-10T08:14:42;-1.50;99.90
20777;DHT22;10548;47.504;8.248;2024-01-10T08:17:12;-1.40;99.90
20777;DHT22;10548;47.504;8.248;2024-01-10T08:19:39;-1.20;99.90
20777;DHT22;10548;47.504;8.248;2024-01-10T08:22:07;-1.20;99.90
20777;DHT22;10548;47.504;8.248;2024-01-10T08:24:34;-1.10;99.90
20777;DHT22;10548;47.504;8.248;2024-01-10T08:27:02;-1.10;99.90
20777;DHT22;10548;47.504;8.248;2024-01-10T08:29:30;-1.00;99.90
20777;DHT22;10548;47.504;8.248;2024-01-10T08:31:58;-1.10;99.90
20777;DHT22;10548;47.504;8.248;2024-01-10T08:34:25;-1.10;99.90
20777;DHT22;10548;47.504;8.248;2024-01-10T08:36:53;-1.00;99.90
20777;DHT22;10548;47.504;8.248;2024-01-10T08:39:21;-0.70;99.90
20777;DHT22;10548;47.504;8.248;2024-01-10T08:41:48;-0.70;99.90
20777;DHT22;10548;47.504;8.248;2024-01-10T08:44:16;-0.60;99.90
20777;DHT22;10548;47.504;8.248;2024-01-10T08:46:43;-0.80;99.90
20777;DHT22;10548;47.504;8.248;2024-01-10T08:49:10;-0.60;99.90
20777;DHT22;10548;47.504;8.248;2024-01-10T08:51:37;-0.40;99.90
20777;DHT22;10548;47.504;8.248;2024-01-10T08:54:04;-0.60;99.90
20777;DHT22;10548;47.504;8.248;2024-01-10T08:56:31;-0.70;99.90
20777;DHT22;10548;47.504;8.248;2024-01-10T08:58:59;-0.70;99.90
20777;DHT22;10548;47.504;8.248;2024-01-10T09:01:28;-0.60;99.90
20777;DHT22;10548;47.504;8.248;2024-01-10T09:03:55;-0.60;99.90
20777;DHT22;10548;47.504;8.248;2024-01-10T09:06:22;-0.30;99.90
20777;DHT22;10548;47.504;8.248;2024-01-10T09:08:49;-0.20;99.90
20777;DHT22;10548;47.504;8.248;2024-01-10T09:11:17;0.00;99.90
20777;DHT22;10548;47.504;8.248;2024-01-10T09:13:44;-0.10;99.90
20777;DHT22;10548;47.504;8.248;2024-01-10T09:16:11;0.00;99.90
20777;DHT22;10548;47.504;8.248;2024-01-10T09:18:38;-0.10;99.90
20777;DHT22;10548;47.504;8.248;2024-01-10T09:21:07;0.00;99.90
20777;DHT22;10548;47.504;8.248;2024-01-10T09:23:34;-0.40;99.90
20777;DHT22;10548;47.504;8.248;2024-01-10T09:26:01;-0.40;99.90
20777;DHT22;10548;47.504;8.248;2024-01-10T09:28:28;-0.40;99.90
20777;DHT22;10548;47.504;8.248;2024-01-10T09:30:55;-0.10;99.90
20777;DHT22;10548;47.504;8.248;2024-01-10T09:33:22;-0.10;99.90
20777;DHT22;10548;47.504;8.248;2024-01-10T09:35:50;-0.30;99.90
20777;DHT22;10548;47.504;8.248;2024-01-10T09:38:17;-0.20;99.90
20777;DHT22;10548;47.504;8.248;2024-01-10T09:40:44;0.00;99.90
20777;DHT22;10548;47.504;8.248;2024-01-10T09:43:11;-0.50;99.90
20777;DHT22;10548;47.504;8.248;2024-01-10T09:45:43;-0.40;99.90
20777;DHT22;10548;47.504;8.248;2024-01-10T09:48:14;-0.10;99.90
20777;DHT22;10548;47.504;8.248;2024-01-10T09:50:42;0.10;99.90
20777;DHT22;10548;47.504;8.248;2024-01-10T09:53:15;0.10;99.90
20777;DHT22;10548;47.504;8.248;2024-01-10T09:55:48;0.00;99.90
20777;DHT22;10548;47.504;8.248;2024-01-10T09:58:16;0.10;99.90
20777;DHT22;10548;47.504;8.248;2024-01-10T10:00:43;0.20;99.90
20777;DHT22;10548;47.504;8.248;2024-01-10T10:03:11;0.30;99.90
20777;DHT22;10548;47.504;8.248;2024-01-10T10:05:40;0.40;99.90
20777;DHT22;10548;47.504;8.248;2024-01-10T10:08:12;0.40;99.90
20777;DHT22;10548;47.504;8.248;2024-01-10T10:10:39;0.10;99.90
20777;DHT22;10548;47.504;8.248;2024-01-10T10:13:10;-0.30;99.90
20777;DHT22;10548;47.504;8.248;2024-01-10T10:15:41;-0.30;99.90
20777;DHT22;10548;47.504;8.248;2024-01-10T10:18:13;-0.20;99.90
20777;DHT22;10548;47.504;8.248;2024-01-10T10:20:41;-0.20;99.90
20777;DHT22;10548;47.504;8.248;2024-01-10T10:23:09;0.30;99.90
20777;DHT22;10548;47.504;8.248;2024-01-10T10:25:43;0.10;99.90
20777;DHT22;10548;47.504;8.248;2024-01-10T10:28:11;0.10;99.90
20777;DHT22;10548;47.504;8.248;2024-01-10T10:30:55;0.30;99.90
20777;DHT22;10548;47.504;8.248;2024-01-10T10:33:23;0.70;99.90
20777;DHT22;10548;47.504;8.248;2024-01-10T10:35:50;0.50;99.90
20777;DHT22;10548;47.504;8.248;2024-01-10T10:38:22;0.50;99.90
20777;DHT22;10548;47.504;8.248;2024-01-10T10:40:50;0.70;99.90
20777;DHT22;10548;47.504;8.248;2024-01-10T10:43:19;0.90;99.90
20777;DHT22;10548;47.504;8.248;2024-01-10T10:45:49;1.00;99.90
20777;DHT22;10548;47.504;8.248;2024-01-10T10:48:18;0.60;99.90
20777;DHT22;10548;47.504;8.248;2024-01-10T10:51:02;1.00;99.90
20777;DHT22;10548;47.504;8.248;2024-01-10T10:53:31;0.90;99.90
20777;DHT22;10548;47.504;8.248;2024-01-10T10:56:05;1.00;99.90
20777;DHT22;10548;47.504;8.248;2024-01-10T10:58:35;0.90;99.90
20777;DHT22;10548;47.504;8.248;2024-01-10T11:01:07;0.90;99.90
20777;DHT22;10548;47.504;8.248;2024-01-10T11:03:36;0.90;99.90
20777;DHT22;10548;47.504;8.248;2024-01-10T11:06:05;1.30;99.90
20777;DHT22;10548;47.504;8.248;2024-01-10T11:08:45;1.10;99.90
20777;DHT22;10548;47.504;8.248;2024-01-10T11:15:14;1.00;99.90
20777;DHT22;10548;47.504;8.248;2024-01-10T11:18:16;1.00;99.90
20777;DHT22;10548;47.504;8.248;2024-01-10T11:23:45;0.80;99.90
20777;DHT22;10548;47.504;8.248;2024-01-10T11:26:15;0.80;99.90
20777;DHT22;10548;47.504;8.248;2024-01-10T11:28:42;0.90;99.90
20777;DHT22;10548;47.504;8.248;2024-01-10T11:31:10;1.10;99.90
20777;DHT22;10548;47.504;8.248;2024-01-10T11:33:39;1.10;99.90
20777;DHT22;10548;47.504;8.248;2024-01-10T11:36:34;1.30;99.90
20777;DHT22;10548;47.504;8.248;2024-01-10T11:39:04;1.00;99.90
20777;DHT22;10548;47.504;8.248;2024-01-10T11:41:40;1.00;99.90
20777;DHT22;10548;47.504;8.248;2024-01-10T11:44:26;1.10;99.90
20777;DHT22;10548;47.504;8.248;2024-01-10T11:46:55;0.90;99.90
20777;DHT22;10548;47.504;8.248;2024-01-10T11:49:23;0.90;99.90
20777;DHT22;10548;47.504;8.248;2024-01-10T11:51:55;1.00;99.90
20777;DHT22;10548;47.504;8.248;2024-01-10T11:54:39;1.00;99.90
20777;DHT22;10548;47.504;8.248;2024-01-10T11:57:11;1.00;99.90
20777;DHT22;10548;47.504;8.248;2024-01-10T11:59:41;1.10;99.90
20777;DHT22;10548;47.504;8.248;2024-01-10T12:02:10;1.10;99.90
20777;DHT22;10548;47.504;8.248;2024-01-10T12:04:38;0.90;99.90
20777;DHT22;10548;47.504;8.248;2024-01-10T12:07:15;0.90;99.90
20777;DHT22;10548;47.504;8.248;2024-01-10T12:09:42;1.00;99.90
20777;DHT22;10548;47.504;8.248;2024-01-10T12:12:10;1.20;99.90
20777;DHT22;10548;47.504;8.248;2024-01-10T12:14:39;1.40;99.90
20777;DHT22;10548;47.504;8.248;2024-01-10T12:17:06;1.00;99.90
20777;DHT22;10548;47.504;8.248;2024-01-10T12:19:37;0.90;99.90
20777;DHT22;10548;47.504;8.248;2024-01-10T12:22:05;0.70;99.90
20777;DHT22;10548;47.504;8.248;2024-01-10T12:24:42;0.70;99.90
20777;DHT22;10548;47.504;8.248;2024-01-10T12:27:11;0.50;99.90
20777;DHT22;10548;47.504;8.248;2024-01-10T12:29:38;0.50;99.90
20777;DHT22;10548;47.504;8.248;2024-01-10T12:32:07;0.60;99.90
20777;DHT22;10548;47.504;8.248;2024-01-10T12:34:38;0.50;99.90
20777;DHT22;10548;47.504;8.248;2024-01-10T12:37:06;0.50;99.90
20777;DHT22;10548;47.504;8.248;2024-01-10T12:39:33;0.70;99.90
20777;DHT22;10548;47.504;8.248;2024-01-10T12:42:00;0.90;99.90
20777;DHT22;10548;47.504;8.248;2024-01-10T12:44:30;1.00;99.90
20777;DHT22;10548;47.504;8.248;2024-01-10T12:46:57;1.00;99.90
20777;DHT22;10548;47.504;8.248;2024-01-10T12:49:25;1.10;99.90
20777;DHT22;10548;47.504;8.248;2024-01-10T12:51:52;1.00;99.90
20777;DHT22;10548;47.504;8.248;2024-01-10T12:54:19;1.10;99.90
20777;DHT22;10548;47.504;8.248;2024-01-10T12:56:46;1.00;99.90
20777;DHT22;10548;47.504;8.248;2024-01-10T12:59:13;1.00;99.90
20777;DHT22;10548;47.504;8.248;2024-01-10T13:01:41;1.10;99.90
20777;DHT22;10548;47.504;8.248;2024-01-10T13:04:09;0.90;99.90
20777;DHT22;10548;47.504;8.248;2024-01-10T13:06:38;1.00;99.90
20777;DHT22;10548;47.504;8.248;2024-01-10T13:09:07;1.00;99.90
20777;DHT22;10548;47.504;8.248;2024-01-10T13:11:34;0.90;99.90
20777;DHT22;10548;47.504;8.248;2024-01-10T13:14:02;1.00;99.90
20777;DHT22;10548;47.504;8.248;2024-01-10T13:16:29;1.10;99.90
20777;DHT22;10548;47.504;8.248;2024-01-10T13:19:02;1.10;99.90
20777;DHT22;10548;47.504;8.248;2024-01-10T13:21:30;1.00;99.90
20777;DHT22;10548;47.504;8.248;2024-01-10T13:23:57;0.90;99.90
20777;DHT22;10548;47.504;8.248;2024-01-10T13:26:24;0.60;99.90
20777;DHT22;10548;47.504;8.248;2024-01-10T13:28:51;0.70;99.90
20777;DHT22;10548;47.504;8.248;2024-01-10T13:31:18;0.80;99.90
20777;DHT22;10548;47.504;8.248;2024-01-10T13:33:45;0.90;99.90
20777;DHT22;10548;47.504;8.248;2024-01-10T13:36:14;0.70;99.90
20777;DHT22;10548;47.504;8.248;2024-01-10T13:38:41;0.60;99.90
20777;DHT22;10548;47.504;8.248;2024-01-10T13:41:08;0.70;99.90
20777;DHT22;10548;47.504;8.248;2024-01-10T13:43:36;0.60;99.90
20777;DHT22;10548;47.504;8.248;2024-01-10T13:46:03;0.60;99.90
20777;DHT22;10548;47.504;8.248;2024-01-10T13:48:35;0.60;99.90
20777;DHT22;10548;47.504;8.248;2024-01-10T13:51:03;0.50;99.90
20777;DHT22;10548;47.504;8.248;2024-01-10T13:53:30;0.40;99.90
20777;DHT22;10548;47.504;8.248;2024-01-10T13:55:57;0.50;99.90
20777;DHT22;10548;47.504;8.248;2024-01-10T13:58:24;0.50;99.90
20777;DHT22;10548;47.504;8.248;2024-01-10T14:00:51;0.40;99.90
20777;DHT22;10548;47.504;8.248;2024-01-10T14:03:19;0.60;99.90
20777;DHT22;10548;47.504;8.248;2024-01-10T14:05:46;0.70;99.90
20777;DHT22;10548;47.504;8.248;2024-01-10T14:08:13;0.40;99.90
20777;DHT22;10548;47.504;8.248;2024-01-10T14:10:40;0.30;99.90
20777;DHT22;10548;47.504;8.248;2024-01-10T14:13:09;0.30;99.90
20777;DHT22;10548;47.504;8.248;2024-01-10T14:15:36;0.30;99.90
20777;DHT22;10548;47.504;8.248;2024-01-10T14:18:03;0.30;99.90
20777;DHT22;10548;47.504;8.248;2024-01-10T14:20:32;0.30;99.90
20777;DHT22;10548;47.504;8.248;2024-01-10T14:22:59;0.20;99.90
20777;DHT22;10548;47.504;8.248;2024-01-10T14:25:27;0.20;99.90
20777;DHT22;10548;47.504;8.248;2024-01-10T14:27:55;0.30;99.90
20777;DHT22;10548;47.504;8.248;2024-01-10T14:30:22;0.50;99.90
20777;DHT22;10548;47.504;8.248;2024-01-10T14:32:52;0.40;99.90
20777;DHT22;10548;47.504;8.248;2024-01-10T14:35:19;0.20;99.90
20777;DHT22;10548;47.504;8.248;2024-01-10T14:37:47;0.10;99.90
20777;DHT22;10548;47.504;8.248;2024-01-10T14:40:14;0.20;99.90
20777;DHT22;10548;47.504;8.248;2024-01-10T14:42:42;0.10;99.90
20777;DHT22;10548;47.504;8.248;2024-01-10T14:45:09;0.10;99.90
20777;DHT22;10548;47.504;8.248;2024-01-10T14:47:38;0.10;99.90
20777;DHT22;10548;47.504;8.248;2024-01-10T14:50:05;0.10;99.90
20777;DHT22;10548;47.504;8.248;2024-01-10T14:52:33;0.10;99.90
20777;DHT22;10548;47.504;8.248;2024-01-10T14:55:00;0.00;99.90
20777;DHT22;10548;47.504;8.248;2024-01-10T14:57:28;0.00;99.90
20777;DHT22;10548;47.504;8.248;2024-01-10T14:59:55;0.10;99.90
20777;DHT22;10548;47.504;8.248;2024-01-10T15:02:22;0.00;99.90
20777;DHT22;10548;47.504;8.248;2024-01-10T15:04:49;0.00;99.90
20777;DHT22;10548;47.504;8.248;2024-01-10T15:07:16;0.00;99.90
20777;DHT22;10548;47.504;8.248;2024-01-10T15:09:44;0.10;99.90
20777;DHT22;10548;47.504;8.248;2024-01-10T15:12:11;0.20;99.90
20777;DHT22;10548;47.504;8.248;2024-01-10T15:14:40;0.20;99.90
20777;DHT22;10548;47.504;8.248;2024-01-10T15:17:08;0.00;99.90
20777;DHT22;10548;47.504;8.248;2024-01-10T15:19:38;-0.10;99.90
20777;DHT22;10548;47.504;8.248;2024-01-10T15:22:06;-0.10;99.90
20777;DHT22;10548;47.504;8.248;2024-01-10T15:24:34;-0.10;99.90
20777;DHT22;10548;47.504;8.248;2024-01-10T15:27:01;-0.20;99.90
20777;DHT22;10548;47.504;8.248;2024-01-10T15:29:33;-0.10;99.90
20777;DHT22;10548;47.504;8.248;2024-01-10T15:32:01;-0.10;99.90
20777;DHT22;10548;47.504;8.248;2024-01-10T15:34:29;-0.20;99.90
20777;DHT22;10548;47.504;8.248;2024-01-10T15:36:56;-0.30;99.90
20777;DHT22;10548;47.504;8.248;2024-01-10T15:39:24;-0.40;99.90
20777;DHT22;10548;47.504;8.248;2024-01-10T15:41:54;-0.30;99.90
20777;DHT22;10548;47.504;8.248;2024-01-10T15:44:21;-0.30;99.90
20777;DHT22;10548;47.504;8.248;2024-01-10T15:46:49;-0.30;99.90
20777;DHT22;10548;47.504;8.248;2024-01-10T15:49:16;-0.40;99.90